PORTS® Data Listing: 8771450 Pier 21, TX

CO-OPS RAW PORTS DATA

************************      PRELIMINARY DATA      ************************** 

     THIS RAW DATA HAS NOT BEEN SUBJECT TO THE NATIONAL OCEAN SERVICE'S        
     QUALITY CONTROL OR QUALITY ASSURANCE PROCEDURES AND DOES NOT MEET         
     THE CRITERIA AND STANDARDS OF OFFICIAL NATIONAL OCEAN SERVICE             
     DATA.  IT IS RELEASED FOR LIMITED PUBLIC USE AS PRELIMINARY DATA TO       
     BE USED ONLY WITH APPROPRIATE CAUTION.                                    

************************      PRELIMINARY DATA      ************************** 


       CD   -   Calendar date
       T    -   Time
       TZ   -   Timezone
       PW   -   Predicted water level (feet above MLLW)
       OW   -   Observed water level (feet above MLLW)
       WS   -   Wind speed (knots)
       WD   -   Wind direction (degrees true)
       WG   -   Wind gust (knots)
       AT   -   Air temperature (degrees farenheit)
       WT   -   Water temperature (degrees farenheit)
       AP   -   Air pressure (millibars)
       SA   -   Salinty (PSU - Practical Salinity Units)
       SG   -   Specific gravity
       RH   -   Relative humidity
       AG   -   Air gap (feet)
       VI   -   Visibility (nautical miles)

       ** NOTE **
       A variable that has its data fields filled with "9"s, indicates that
       data was not collected for that sample period.
       **********


STATION NAME: Pier 21 (8771450)
****************************************************************************************************
    CD       T    TZ    PW     OW    WS   WD   WG    AT    WT    AP    SA    SG     RH    AG   VI
****************************************************************************************************
2020/02/27 09:12 CST    0.55   0.61    3   51    5  46.0  56.7 1031.4 -9.9 -9.999 -99.9 -99.99 -9.99
2020/02/27 09:18 CST    0.54   0.60    2  318    7  45.7  56.8 1031.4 -9.9 -9.999 -99.9 -99.99 -9.99
2020/02/27 09:24 CST    0.52   0.61    3   10    5  46.0  56.8 1031.5 -9.9 -9.999 -99.9 -99.99 -9.99
2020/02/27 09:30 CST    0.51   0.55    5   35    7  45.9  56.8 1031.5 -9.9 -9.999 -99.9 -99.99 -9.99
2020/02/27 09:36 CST    0.49   0.54    4   17    7  46.0  56.8 1031.5 -9.9 -9.999 -99.9 -99.99 -9.99
2020/02/27 09:42 CST    0.48   0.58    5    4    8  45.9  56.8 1031.4 -9.9 -9.999 -99.9 -99.99 -9.99
2020/02/27 09:48 CST    0.46   0.55    3  331    6  46.0  56.8 1031.3 -9.9 -9.999 -99.9 -99.99 -9.99
2020/02/27 09:54 CST    0.45   0.55    3  353    6  46.0  57.0 1031.3 -9.9 -9.999 -99.9 -99.99 -9.99
2020/02/27 10:00 CST    0.44   0.52    5   25    7  46.2  57.0 1031.2 -9.9 -9.999 -99.9 -99.99 -9.99
2020/02/27 10:06 CST    0.43   0.55    3  322    7  46.2  57.0 1031.2 -9.9 -9.999 -99.9 -99.99 -9.99
2020/02/27 10:12 CST    0.41   0.52    5   15    8  46.2  57.0 1031.1 -9.9 -9.999 -99.9 -99.99 -9.99
2020/02/27 10:18 CST    0.40   0.52    6    8    9  46.0  57.0 1031.2 -9.9 -9.999 -99.9 -99.99 -9.99
2020/02/27 10:24 CST    0.39   0.55    5  325    7  46.2  57.2 1031.2 -9.9 -9.999 -99.9 -99.99 -9.99
2020/02/27 10:30 CST    0.38   0.53    4  324    9  46.6  57.2 1031.1 -9.9 -9.999 -99.9 -99.99 -9.99
2020/02/27 10:36 CST    0.37   0.55    5   48   12  46.2  57.2 1031.1 -9.9 -9.999 -99.9 -99.99 -9.99
2020/02/27 10:42 CST    0.36   0.56    4   49    6  46.8  57.2 1031.1 -9.9 -9.999 -99.9 -99.99 -9.99
2020/02/27 10:48 CST    0.35   0.59    6   14   10  46.4  57.2 1031.1 -9.9 -9.999 -99.9 -99.99 -9.99
2020/02/27 10:54 CST    0.34   0.58    4  345    8  46.8  57.2 1031.1 -9.9 -9.999 -99.9 -99.99 -9.99
2020/02/27 11:00 CST    0.33   0.55    4  324    8  46.8  57.4 1031.0 -9.9 -9.999 -99.9 -99.99 -9.99
2020/02/27 11:06 CST    0.33   0.54    4   15    8  46.9  57.4 1031.0 -9.9 -9.999 -99.9 -99.99 -9.99
2020/02/27 11:12 CST    0.32   0.56    6   26   10  46.6  57.4 1031.1 -9.9 -9.999 -99.9 -99.99 -9.99
2020/02/27 11:18 CST    0.32   0.57    9  341   11  46.6  57.4 1031.1 -9.9 -9.999 -99.9 -99.99 -9.99
2020/02/27 11:24 CST    0.31   0.59    3    3    9  46.9  57.4 1031.0 -9.9 -9.999 -99.9 -99.99 -9.99
2020/02/27 11:30 CST    0.31   0.58    7   30   10  46.8  57.6 1031.0 -9.9 -9.999 -99.9 -99.99 -9.99
2020/02/27 11:36 CST    0.30   0.59    5  347    7  46.8  57.6 1031.0 -9.9 -9.999 -99.9 -99.99 -9.99
2020/02/27 11:42 CST    0.30   0.57    6    3    9  47.1  57.6 1030.9 -9.9 -9.999 -99.9 -99.99 -9.99
2020/02/27 11:48 CST    0.30   0.58    3  339   11  46.9  57.6 1030.8 -9.9 -9.999 -99.9 -99.99 -9.99
2020/02/27 11:54 CST    0.30   0.59    7   10   10  47.1  57.6 1030.7 -9.9 -9.999 -99.9 -99.99 -9.99
2020/02/27 12:00 CST    0.30   0.59    5   54    9  47.3  57.7 1030.5 -9.9 -9.999 -99.9 -99.99 -9.99
2020/02/27 12:06 CST    0.30   0.57    6   51    9  47.5  57.7 1030.5 -9.9 -9.999 -99.9 -99.99 -9.99
2020/02/27 12:12 CST    0.30   0.57    5   48    9  47.5  57.7 1030.4 -9.9 -9.999 -99.9 -99.99 -9.99
2020/02/27 12:18 CST    0.30   0.58    4   23   10  47.3  57.7 1030.3 -9.9 -9.999 -99.9 -99.99 -9.99
2020/02/27 12:24 CST    0.30   0.63    5   21    7  47.3  57.7 1030.2 -9.9 -9.999 -99.9 -99.99 -9.99
2020/02/27 12:30 CST    0.30   0.60    5   35   10  47.8  57.9 1030.1 -9.9 -9.999 -99.9 -99.99 -9.99
2020/02/27 12:36 CST    0.31   0.60    4   68    7  48.4  57.9 1030.0 -9.9 -9.999 -99.9 -99.99 -9.99
2020/02/27 12:42 CST    0.31   0.61    5   36    9  48.2  57.9 1029.9 -9.9 -9.999 -99.9 -99.99 -9.99
2020/02/27 12:48 CST    0.32   0.63    4    5    8  48.2  57.9 1029.9 -9.9 -9.999 -99.9 -99.99 -9.99
2020/02/27 12:54 CST    0.32   0.61    7   26   11  48.4  57.9 1029.8 -9.9 -9.999 -99.9 -99.99 -9.99
2020/02/27 13:00 CST    0.33   0.60    5    5    8  48.7  58.1 1029.6 -9.9 -9.999 -99.9 -99.99 -9.99
2020/02/27 13:06 CST    0.33   0.61    5    8   10  48.6  58.1 1029.5 -9.9 -9.999 -99.9 -99.99 -9.99
2020/02/27 13:12 CST    0.34   0.59    3   31    5  49.1  58.1 1029.3 -9.9 -9.999 -99.9 -99.99 -9.99
2020/02/27 13:18 CST    0.35   0.56    5  342    9  48.9  58.1 1029.2 -9.9 -9.999 -99.9 -99.99 -9.99
2020/02/27 13:24 CST    0.35   0.60    3  329    6  49.3  58.1 1029.1 -9.9 -9.999 -99.9 -99.99 -9.99
2020/02/27 13:30 CST    0.36   0.59    2    0    9  49.3  58.1 1029.0 -9.9 -9.999 -99.9 -99.99 -9.99
2020/02/27 13:36 CST    0.37   0.58    1  333    2  50.4  58.3 1028.8 -9.9 -9.999 -99.9 -99.99 -9.99
2020/02/27 13:42 CST    0.38   0.63    3  276    5  51.8  58.3 1028.7 -9.9 -9.999 -99.9 -99.99 -9.99
2020/02/27 13:48 CST    0.39   0.65    4  277    7  51.6  58.3 1028.6 -9.9 -9.999 -99.9 -99.99 -9.99
2020/02/27 13:54 CST    0.40   0.70    4  310    6  50.4  58.3 1028.4 -9.9 -9.999 -99.9 -99.99 -9.99
2020/02/27 14:00 CST    0.41   0.62    3  279    5  51.3  58.3 1028.3 -9.9 -9.999 -99.9 -99.99 -9.99
2020/02/27 14:06 CST    0.42   0.62    4  258    5  51.8  58.3 1028.2 -9.9 -9.999 -99.9 -99.99 -9.99
2020/02/27 14:12 CST    0.43   0.66    5  208   10  51.6  58.3 1028.1 -9.9 -9.999 -99.9 -99.99 -9.99
2020/02/27 14:18 CST    0.44   0.65    4  180    8  52.3  58.3 1028.0 -9.9 -9.999 -99.9 -99.99 -9.99
2020/02/27 14:24 CST    0.45   0.68    4  169    9  52.3  58.3 1027.9 -9.9 -9.999 -99.9 -99.99 -9.99
2020/02/27 14:30 CST    0.46   0.66    4  178    9  52.5  58.3 1027.9 -9.9 -9.999 -99.9 -99.99 -9.99
2020/02/27 14:36 CST    0.47   0.70    8  187   11  51.6  58.5 1027.8 -9.9 -9.999 -99.9 -99.99 -9.99
2020/02/27 14:42 CST    0.48   0.75    5  173    9  51.6  58.5 1027.8 -9.9 -9.999 -99.9 -99.99 -9.99
2020/02/27 14:48 CST    0.49   0.79    7  186   12  51.4  58.5 1027.7 -9.9 -9.999 -99.9 -99.99 -9.99
2020/02/27 14:54 CST    0.50   0.80    6  176   11  51.3  58.5 1027.6 -9.9 -9.999 -99.9 -99.99 -9.99
2020/02/27 15:00 CST    0.51   0.80    5  195    9  51.4  58.5 1027.5 -9.9 -9.999 -99.9 -99.99 -9.99
2020/02/27 15:06 CST    0.52   0.82    5  182    9  51.6  58.5 1027.5 -9.9 -9.999 -99.9 -99.99 -9.99
2020/02/27 15:12 CST    0.54   0.85    6  194    8  51.6  58.5 1027.4 -9.9 -9.999 -99.9 -99.99 -9.99
2020/02/27 15:18 CST    0.55   0.84    5  114    9  51.4  58.5 1027.4 -9.9 -9.999 -99.9 -99.99 -9.99
2020/02/27 15:24 CST    0.56   0.89    7  191   10  51.3  58.6 1027.3 -9.9 -9.999 -99.9 -99.99 -9.99
2020/02/27 15:30 CST    0.57   0.90    6  173   11  51.6  58.6 1027.2 -9.9 -9.999 -99.9 -99.99 -9.99
2020/02/27 15:36 CST    0.58   0.85    3  177    9  53.1  58.6 1027.2 -9.9 -9.999 -99.9 -99.99 -9.99
2020/02/27 15:42 CST    0.60   0.95    4  139   10  51.6  58.6 1027.1 -9.9 -9.999 -99.9 -99.99 -9.99
2020/02/27 15:48 CST    0.61   0.92    5  170   10  51.4  58.6 1027.0 -9.9 -9.999 -99.9 -99.99 -9.99
2020/02/27 15:54 CST    0.62   0.97    5  138    8  51.3  58.6 1027.0 -9.9 -9.999 -99.9 -99.99 -9.99
2020/02/27 16:00 CST    0.63   1.15    5  138    8  50.9  58.8 1027.0 -9.9 -9.999 -99.9 -99.99 -9.99
2020/02/27 16:06 CST    0.64   1.19    4  142    8  51.3  58.8 1027.0 -9.9 -9.999 -99.9 -99.99 -9.99
2020/02/27 16:12 CST    0.65   1.04    4  164    9  51.6  58.6 1026.9 -9.9 -9.999 -99.9 -99.99 -9.99
2020/02/27 16:18 CST    0.67   0.97    4  184    9  52.0  58.6 1026.9 -9.9 -9.999 -99.9 -99.99 -9.99
2020/02/27 16:24 CST    0.68   1.10    4  164    8  52.5  58.6 1026.8 -9.9 -9.999 -99.9 -99.99 -9.99
2020/02/27 16:30 CST    0.69   1.07    5  132    8  51.4  58.6 1026.8 -9.9 -9.999 -99.9 -99.99 -9.99
2020/02/27 16:36 CST    0.70   1.09    4  149    7  52.0  58.8 1026.8 -9.9 -9.999 -99.9 -99.99 -9.99
2020/02/27 16:42 CST    0.71   1.17    5  144    8  51.3  58.8 1026.8 -9.9 -9.999 -99.9 -99.99 -9.99
2020/02/27 16:48 CST    0.72   1.18    3  164    9  52.3  58.8 1026.8 -9.9 -9.999 -99.9 -99.99 -9.99
2020/02/27 16:54 CST    0.73   1.23    4  175    7  52.5  58.8 1026.8 -9.9 -9.999 -99.9 -99.99 -9.99
2020/02/27 17:00 CST    0.74   1.20    5  181    7  52.2  58.8 1026.8 -9.9 -9.999 -99.9 -99.99 -9.99
2020/02/27 17:06 CST    0.75   1.22    5  202    7  52.3  58.8 1026.8 -9.9 -9.999 -99.9 -99.99 -9.99
2020/02/27 17:12 CST    0.76   1.21    3  149    6  52.3  58.8 1026.8 -9.9 -9.999 -99.9 -99.99 -9.99
2020/02/27 17:18 CST    0.77   1.21    5  193    7  51.8  58.8 1026.9 -9.9 -9.999 -99.9 -99.99 -9.99
2020/02/27 17:24 CST    0.77   1.24    4  170    7  52.5  58.8 1026.9 -9.9 -9.999 -99.9 -99.99 -9.99
2020/02/27 17:30 CST    0.78   1.26    5  200    8  52.0  58.8 1026.9 -9.9 -9.999 -99.9 -99.99 -9.99
2020/02/27 17:36 CST    0.79   1.24    4  178    8  52.0  58.8 1027.0 -9.9 -9.999 -99.9 -99.99 -9.99
2020/02/27 17:42 CST    0.80   1.25    3  174    7  52.2  58.8 1027.1 -9.9 -9.999 -99.9 -99.99 -9.99
2020/02/27 17:48 CST    0.80   1.25    5  201    8  51.6  58.8 1027.0 -9.9 -9.999 -99.9 -99.99 -9.99
2020/02/27 17:54 CST    0.81   1.30    5  211    7  51.1  58.8 1027.1 -9.9 -9.999 -99.9 -99.99 -9.99
2020/02/27 18:00 CST    0.81   1.29    4  211    8  51.3  58.8 1027.2 -9.9 -9.999 -99.9 -99.99 -9.99
2020/02/27 18:06 CST    0.82   1.28    3  219    8  51.1  58.8 1027.2 -9.9 -9.999 -99.9 -99.99 -9.99
2020/02/27 18:12 CST    0.82   1.35    3  216    9  50.7  58.8 1027.2 -9.9 -9.999 -99.9 -99.99 -9.99
2020/02/27 18:18 CST    0.82   1.35    5  208    9  50.5  58.8 1027.2 -9.9 -9.999 -99.9 -99.99 -9.99
2020/02/27 18:24 CST    0.83   1.29    6  221    8  50.4  58.8 1027.2 -9.9 -9.999 -99.9 -99.99 -9.99
2020/02/27 18:30 CST    0.83   1.26    4  217    7  50.4  58.8 1027.1 -9.9 -9.999 -99.9 -99.99 -9.99
2020/02/27 18:36 CST    0.83   1.19    4  207    6  50.4  58.8 1027.2 -9.9 -9.999 -99.9 -99.99 -9.99
2020/02/27 18:42 CST    0.83   1.25    3  219    7  50.5  58.8 1027.1 -9.9 -9.999 -99.9 -99.99 -9.99
2020/02/27 18:48 CST    0.83   1.30    5  209    7  50.4  58.8 1027.1 -9.9 -9.999 -99.9 -99.99 -9.99
2020/02/27 18:54 CST    0.83   1.27    5  212    8  50.5  59.0 1027.1 -9.9 -9.999 -99.9 -99.99 -9.99
2020/02/27 19:00 CST    0.83   1.27    4  205    8  50.5  59.0 1027.1 -9.9 -9.999 -99.9 -99.99 -9.99
2020/02/27 19:06 CST    0.82   1.24    4  216    7  50.5  59.0 1027.1 -9.9 -9.999 -99.9 -99.99 -9.99
2020/02/27 19:12 CST    0.82   1.25    4  221    6  50.5  59.0 1027.1 -9.9 -9.999 -99.9 -99.99 -9.99
2020/02/27 19:18 CST    0.82   1.24    4  213    5  50.5  59.0 1027.2 -9.9 -9.999 -99.9 -99.99 -9.99
2020/02/27 19:24 CST    0.81   1.23    4  213    6  50.4  59.0 1027.2 -9.9 -9.999 -99.9 -99.99 -9.99
2020/02/27 19:30 CST    0.81   1.22    4  214    6  50.4  59.0 1027.3 -9.9 -9.999 -99.9 -99.99 -9.99
2020/02/27 19:36 CST    0.80   1.19    5  218    8  50.4  59.0 1027.3 -9.9 -9.999 -99.9 -99.99 -9.99
2020/02/27 19:42 CST    0.79   1.20    4  219    6  50.5  59.0 1027.4 -9.9 -9.999 -99.9 -99.99 -9.99
2020/02/27 19:48 CST    0.78   1.18    5  217    7  50.4  59.0 1027.4 -9.9 -9.999 -99.9 -99.99 -9.99
2020/02/27 19:54 CST    0.77   1.18    4  223    5  50.5  59.0 1027.4 -9.9 -9.999 -99.9 -99.99 -9.99
2020/02/27 20:00 CST    0.77   1.15    5  217    7  50.5  59.0 1027.4 -9.9 -9.999 -99.9 -99.99 -9.99
2020/02/27 20:06 CST    0.76   1.14    4  227    7  50.5  59.0 1027.5 -9.9 -9.999 -99.9 -99.99 -9.99
2020/02/27 20:12 CST    0.74   1.16    3  222    7  50.5  59.0 1027.5 -9.9 -9.999 -99.9 -99.99 -9.99
2020/02/27 20:18 CST    0.73   1.18    3  216    6  50.5  59.0 1027.6 -9.9 -9.999 -99.9 -99.99 -9.99
2020/02/27 20:24 CST    0.72   1.17    4  219    6  50.5  59.0 1027.6 -9.9 -9.999 -99.9 -99.99 -9.99
2020/02/27 20:30 CST    0.71   1.11    3  217    8  50.7  59.0 1027.6 -9.9 -9.999 -99.9 -99.99 -9.99
2020/02/27 20:36 CST    0.69   1.11    3  204    5  50.7  59.0 1027.6 -9.9 -9.999 -99.9 -99.99 -9.99
2020/02/27 20:42 CST    0.68   1.11    4  211    6  50.7  59.0 1027.7 -9.9 -9.999 -99.9 -99.99 -9.99
2020/02/27 20:48 CST    0.67   1.10    4  219    7  50.9  59.0 1027.7 -9.9 -9.999 -99.9 -99.99 -9.99
2020/02/27 20:54 CST    0.65   1.05    4  222    6  50.7  59.0 1027.7 -9.9 -9.999 -99.9 -99.99 -9.99
2020/02/27 21:00 CST    0.64   1.08    4  223    7  50.9  59.0 1027.8 -9.9 -9.999 -99.9 -99.99 -9.99
2020/02/27 21:06 CST    0.62   1.11    4  226    6  50.9  59.2 1027.8 -9.9 -9.999 -99.9 -99.99 -9.99
2020/02/27 21:12 CST    0.61   1.02    4  223    6  50.9  59.2 1027.8 -9.9 -9.999 -99.9 -99.99 -9.99
2020/02/27 21:18 CST    0.59   1.03    4  221    7  50.9  59.2 1027.9 -9.9 -9.999 -99.9 -99.99 -9.99
2020/02/27 21:24 CST    0.58   1.02    4  221    7  50.9  59.2 1028.0 -9.9 -9.999 -99.9 -99.99 -9.99
2020/02/27 21:30 CST    0.56   1.01    4  215    6  50.9  59.2 1028.0 -9.9 -9.999 -99.9 -99.99 -9.99
2020/02/27 21:36 CST    0.54   1.00    3  223    6  50.9  59.2 1028.1 -9.9 -9.999 -99.9 -99.99 -9.99
2020/02/27 21:42 CST    0.53   1.03    4  219    6  50.9  59.2 1028.1 -9.9 -9.999 -99.9 -99.99 -9.99
2020/02/27 21:48 CST    0.51   1.00    5  224    6  50.9  59.2 1028.1 -9.9 -9.999 -99.9 -99.99 -9.99
2020/02/27 21:54 CST    0.50   1.03    1  222    5  50.9  59.2 1028.2 -9.9 -9.999 -99.9 -99.99 -9.99
2020/02/27 22:00 CST    0.48   0.94    3  217    6  50.9  59.2 1028.3 -9.9 -9.999 -99.9 -99.99 -9.99
2020/02/27 22:06 CST    0.46   0.90    4  224    5  50.9  59.2 1028.4 -9.9 -9.999 -99.9 -99.99 -9.99
2020/02/27 22:12 CST    0.45   0.93    4  221    5  50.9  59.2 1028.4 -9.9 -9.999 -99.9 -99.99 -9.99
2020/02/27 22:18 CST    0.43   0.91    3  220    5  50.7  59.2 1028.4 -9.9 -9.999 -99.9 -99.99 -9.99
2020/02/27 22:24 CST    0.42   0.96    4  221    5  50.9  59.2 1028.4 -9.9 -9.999 -99.9 -99.99 -9.99
2020/02/27 22:30 CST    0.41   0.96    3  226    5  50.7  59.2 1028.4 -9.9 -9.999 -99.9 -99.99 -9.99
2020/02/27 22:36 CST    0.39   0.85    2  243    6  50.7  59.2 1028.5 -9.9 -9.999 -99.9 -99.99 -9.99
2020/02/27 22:42 CST    0.38   0.82    3  238    4  50.7  59.2 1028.4 -9.9 -9.999 -99.9 -99.99 -9.99
2020/02/27 22:48 CST    0.37   0.83    3  225    5  50.9  59.2 1028.4 -9.9 -9.999 -99.9 -99.99 -9.99
2020/02/27 22:54 CST    0.35   0.85    3  230    4  50.7  59.4 1028.3 -9.9 -9.999 -99.9 -99.99 -9.99
2020/02/27 23:00 CST    0.34   0.83    3  239    6  50.7  59.4 1028.4 -9.9 -9.999 -99.9 -99.99 -9.99
2020/02/27 23:06 CST    0.33   0.80    5  251    6  50.4  59.4 1028.4 -9.9 -9.999 -99.9 -99.99 -9.99
2020/02/27 23:12 CST    0.32   0.88    4  247    5  50.4  59.4 1028.4 -9.9 -9.999 -99.9 -99.99 -9.99
2020/02/27 23:18 CST    0.31   0.76    5  249    6  50.2  59.4 1028.4 -9.9 -9.999 -99.9 -99.99 -9.99
2020/02/27 23:24 CST    0.30   0.71    4  252    5  50.2  59.4 1028.3 -9.9 -9.999 -99.9 -99.99 -9.99
2020/02/27 23:30 CST    0.29   0.77    4  253    5  50.0  59.4 1028.2 -9.9 -9.999 -99.9 -99.99 -9.99
2020/02/27 23:36 CST    0.28   0.65    3  252    4  50.0  59.4 1028.2 -9.9 -9.999 -99.9 -99.99 -9.99
2020/02/27 23:42 CST    0.28   0.66    4  254    4  50.0  59.4 1028.3 -9.9 -9.999 -99.9 -99.99 -9.99
2020/02/27 23:48 CST    0.27   0.71    4  251    5  50.2  59.4 1028.2 -9.9 -9.999 -99.9 -99.99 -9.99
2020/02/27 23:54 CST    0.26   0.74    3  247    4  50.0  59.4 1028.1 -9.9 -9.999 -99.9 -99.99 -9.99
2020/02/28 00:00 CST    0.26   0.74    3  248    5  50.4  59.4 1028.1 -9.9 -9.999 -99.9 -99.99 -9.99
2020/02/28 00:06 CST    0.25   0.65    4  255    5  50.5  59.4 1028.1 -9.9 -9.999 -99.9 -99.99 -9.99
2020/02/28 00:12 CST    0.25   0.69    4  254    5  50.2  59.4 1028.1 -9.9 -9.999 -99.9 -99.99 -9.99
2020/02/28 00:18 CST    0.25   0.64    4  252    6  50.2  59.4 1028.1 -9.9 -9.999 -99.9 -99.99 -9.99
2020/02/28 00:24 CST    0.24   0.66    4  250    5  50.2  59.4 1028.1 -9.9 -9.999 -99.9 -99.99 -9.99
2020/02/28 00:30 CST    0.24   0.65    3  244    5  50.5  59.4 1028.1 -9.9 -9.999 -99.9 -99.99 -9.99
2020/02/28 00:36 CST    0.24   0.59    3  249    6  50.4  59.4 1028.0 -9.9 -9.999 -99.9 -99.99 -9.99
2020/02/28 00:42 CST    0.24   0.64    3  248    5  50.4  59.4 1028.0 -9.9 -9.999 -99.9 -99.99 -9.99
2020/02/28 00:48 CST    0.24   0.62    2  226    4  50.4  59.4 1027.9 -9.9 -9.999 -99.9 -99.99 -9.99
2020/02/28 00:54 CST    0.24   0.61    4  221    6  50.5  59.4 1027.9 -9.9 -9.999 -99.9 -99.99 -9.99
2020/02/28 01:00 CST    0.24   0.61    2  225    5  50.5  59.4 1027.9 -9.9 -9.999 -99.9 -99.99 -9.99
2020/02/28 01:06 CST    0.25   0.59    3  242    4  50.7  59.4 1027.8 -9.9 -9.999 -99.9 -99.99 -9.99
2020/02/28 01:12 CST    0.25   0.61    2  222    4  50.4  59.4 1027.8 -9.9 -9.999 -99.9 -99.99 -9.99
2020/02/28 01:18 CST    0.25   0.60    2  239    4  50.5  59.4 1027.8 -9.9 -9.999 -99.9 -99.99 -9.99
2020/02/28 01:24 CST    0.26   0.59    2  255    3  50.5  59.4 1027.8 -9.9 -9.999 -99.9 -99.99 -9.99
2020/02/28 01:30 CST    0.26   0.56    3  257    4  50.5  59.2 1027.7 -9.9 -9.999 -99.9 -99.99 -9.99
2020/02/28 01:36 CST    0.26   0.54    2  253    4  50.4  59.2 1027.6 -9.9 -9.999 -99.9 -99.99 -9.99
2020/02/28 01:42 CST    0.27   0.55    2  252    4  50.4  59.2 1027.5 -9.9 -9.999 -99.9 -99.99 -9.99
2020/02/28 01:48 CST    0.28   0.56    3  247    4  50.5  59.2 1027.5 -9.9 -9.999 -99.9 -99.99 -9.99
2020/02/28 01:54 CST    0.28   0.57    2  252    4  50.5  59.2 1027.5 -9.9 -9.999 -99.9 -99.99 -9.99
2020/02/28 02:00 CST    0.29   0.54    3  254    4  50.4  59.2 1027.4 -9.9 -9.999 -99.9 -99.99 -9.99
2020/02/28 02:06 CST    0.30   0.55    3  252    5  50.4  59.0 1027.4 -9.9 -9.999 -99.9 -99.99 -9.99
2020/02/28 02:12 CST    0.30   0.56    3  255    5  50.4  59.0 1027.3 -9.9 -9.999 -99.9 -99.99 -9.99
2020/02/28 02:18 CST    0.31   0.58    3  250    5  50.2  59.0 1027.2 -9.9 -9.999 -99.9 -99.99 -9.99
2020/02/28 02:24 CST    0.32   0.58    4  249    6  50.5  59.0 1027.1 -9.9 -9.999 -99.9 -99.99 -9.99
2020/02/28 02:30 CST    0.33   0.57    3  252    6  50.5  59.0 1027.1 -9.9 -9.999 -99.9 -99.99 -9.99
2020/02/28 02:36 CST    0.34   0.59    4  254    5  50.5  59.0 1027.0 -9.9 -9.999 -99.9 -99.99 -9.99
2020/02/28 02:42 CST    0.34   0.61    4  249    6  50.9  59.0 1027.0 -9.9 -9.999 -99.9 -99.99 -9.99
2020/02/28 02:48 CST    0.35   0.61    4  251    6  50.9  58.8 1027.0 -9.9 -9.999 -99.9 -99.99 -9.99
2020/02/28 02:54 CST    0.36   0.60    4  250    6  50.9  58.8 1026.9 -9.9 -9.999 -99.9 -99.99 -9.99
2020/02/28 03:00 CST    0.37   0.61    4  247    6  50.9  58.8 1026.9 -9.9 -9.999 -99.9 -99.99 -9.99
2020/02/28 03:06 CST    0.38   0.65 -999 -999 -999 -99.9  58.8 -999.9 -9.9 -9.999 -99.9 -99.99 -9.99
2020/02/28 03:12 CST    0.39 -99.99 -999 -999 -999 -99.9 -99.9 -999.9 -9.9 -9.999 -99.9 -99.99 -9.99
2020/02/28 03:18 CST    0.40 -99.99 -999 -999 -999 -99.9 -99.9 -999.9 -9.9 -9.999 -99.9 -99.99 -9.99
2020/02/28 03:24 CST    0.42 -99.99 -999 -999 -999 -99.9 -99.9 -999.9 -9.9 -9.999 -99.9 -99.99 -9.99
2020/02/28 03:30 CST    0.43 -99.99 -999 -999 -999 -99.9 -99.9 -999.9 -9.9 -9.999 -99.9 -99.99 -9.99
2020/02/28 03:36 CST    0.44 -99.99 -999 -999 -999 -99.9 -99.9 -999.9 -9.9 -9.999 -99.9 -99.99 -9.99
2020/02/28 03:42 CST    0.45 -99.99 -999 -999 -999 -99.9 -99.9 -999.9 -9.9 -9.999 -99.9 -99.99 -9.99
2020/02/28 03:48 CST    0.46 -99.99 -999 -999 -999 -99.9 -99.9 -999.9 -9.9 -9.999 -99.9 -99.99 -9.99
2020/02/28 03:54 CST    0.47 -99.99 -999 -999 -999 -99.9 -99.9 -999.9 -9.9 -9.999 -99.9 -99.99 -9.99
2020/02/28 04:00 CST    0.48 -99.99 -999 -999 -999 -99.9 -99.9 -999.9 -9.9 -9.999 -99.9 -99.99 -9.99
2020/02/28 04:06 CST    0.49 -99.99 -999 -999 -999 -99.9 -99.9 -999.9 -9.9 -9.999 -99.9 -99.99 -9.99
2020/02/28 04:12 CST    0.51 -99.99 -999 -999 -999 -99.9 -99.9 -999.9 -9.9 -9.999 -99.9 -99.99 -9.99
2020/02/28 04:18 CST    0.52 -99.99 -999 -999 -999 -99.9 -99.9 -999.9 -9.9 -9.999 -99.9 -99.99 -9.99
2020/02/28 04:24 CST    0.53 -99.99 -999 -999 -999 -99.9 -99.9 -999.9 -9.9 -9.999 -99.9 -99.99 -9.99
2020/02/28 04:30 CST    0.54 -99.99 -999 -999 -999 -99.9 -99.9 -999.9 -9.9 -9.999 -99.9 -99.99 -9.99
2020/02/28 04:36 CST    0.55 -99.99 -999 -999 -999 -99.9 -99.9 -999.9 -9.9 -9.999 -99.9 -99.99 -9.99
2020/02/28 04:42 CST    0.57 -99.99 -999 -999 -999 -99.9 -99.9 -999.9 -9.9 -9.999 -99.9 -99.99 -9.99
2020/02/28 04:48 CST    0.58 -99.99 -999 -999 -999 -99.9 -99.9 -999.9 -9.9 -9.999 -99.9 -99.99 -9.99
2020/02/28 04:54 CST    0.59 -99.99 -999 -999 -999 -99.9 -99.9 -999.9 -9.9 -9.999 -99.9 -99.99 -9.99
2020/02/28 05:00 CST    0.60 -99.99 -999 -999 -999 -99.9 -99.9 -999.9 -9.9 -9.999 -99.9 -99.99 -9.99
2020/02/28 05:06 CST    0.61 -99.99 -999 -999 -999 -99.9 -99.9 -999.9 -9.9 -9.999 -99.9 -99.99 -9.99
2020/02/28 05:12 CST    0.62 -99.99 -999 -999 -999 -99.9 -99.9 -999.9 -9.9 -9.999 -99.9 -99.99 -9.99
2020/02/28 05:18 CST    0.64 -99.99 -999 -999 -999 -99.9 -99.9 -999.9 -9.9 -9.999 -99.9 -99.99 -9.99
2020/02/28 05:24 CST    0.65 -99.99 -999 -999 -999 -99.9 -99.9 -999.9 -9.9 -9.999 -99.9 -99.99 -9.99
2020/02/28 05:30 CST    0.66 -99.99 -999 -999 -999 -99.9 -99.9 -999.9 -9.9 -9.999 -99.9 -99.99 -9.99
2020/02/28 05:36 CST    0.67 -99.99 -999 -999 -999 -99.9 -99.9 -999.9 -9.9 -9.999 -99.9 -99.99 -9.99
2020/02/28 05:42 CST    0.68 -99.99 -999 -999 -999 -99.9 -99.9 -999.9 -9.9 -9.999 -99.9 -99.99 -9.99
2020/02/28 05:48 CST    0.69 -99.99 -999 -999 -999 -99.9 -99.9 -999.9 -9.9 -9.999 -99.9 -99.99 -9.99
2020/02/28 05:54 CST    0.70 -99.99 -999 -999 -999 -99.9 -99.9 -999.9 -9.9 -9.999 -99.9 -99.99 -9.99
2020/02/28 06:00 CST    0.71 -99.99 -999 -999 -999 -99.9 -99.9 -999.9 -9.9 -9.999 -99.9 -99.99 -9.99
2020/02/28 06:06 CST    0.72 -99.99 -999 -999 -999 -99.9 -99.9 -999.9 -9.9 -9.999 -99.9 -99.99 -9.99
2020/02/28 06:12 CST    0.73 -99.99 -999 -999 -999 -99.9 -99.9 -999.9 -9.9 -9.999 -99.9 -99.99 -9.99
2020/02/28 06:18 CST    0.74 -99.99 -999 -999 -999 -99.9 -99.9 -999.9 -9.9 -9.999 -99.9 -99.99 -9.99
2020/02/28 06:24 CST    0.74 -99.99 -999 -999 -999 -99.9 -99.9 -999.9 -9.9 -9.999 -99.9 -99.99 -9.99
2020/02/28 06:30 CST    0.75 -99.99 -999 -999 -999 -99.9 -99.9 -999.9 -9.9 -9.999 -99.9 -99.99 -9.99
2020/02/28 06:36 CST    0.76 -99.99 -999 -999 -999 -99.9 -99.9 -999.9 -9.9 -9.999 -99.9 -99.99 -9.99
2020/02/28 06:42 CST    0.76 -99.99 -999 -999 -999 -99.9 -99.9 -999.9 -9.9 -9.999 -99.9 -99.99 -9.99
2020/02/28 06:48 CST    0.77 -99.99 -999 -999 -999 -99.9 -99.9 -999.9 -9.9 -9.999 -99.9 -99.99 -9.99
2020/02/28 06:54 CST    0.78 -99.99 -999 -999 -999 -99.9 -99.9 -999.9 -9.9 -9.999 -99.9 -99.99 -9.99
2020/02/28 07:00 CST    0.78 -99.99 -999 -999 -999 -99.9 -99.9 -999.9 -9.9 -9.999 -99.9 -99.99 -9.99
2020/02/28 07:06 CST    0.79 -99.99 -999 -999 -999 -99.9 -99.9 -999.9 -9.9 -9.999 -99.9 -99.99 -9.99
2020/02/28 07:12 CST    0.79 -99.99 -999 -999 -999 -99.9 -99.9 -999.9 -9.9 -9.999 -99.9 -99.99 -9.99
2020/02/28 07:18 CST    0.79 -99.99 -999 -999 -999 -99.9 -99.9 -999.9 -9.9 -9.999 -99.9 -99.99 -9.99
2020/02/28 07:24 CST    0.79 -99.99 -999 -999 -999 -99.9 -99.9 -999.9 -9.9 -9.999 -99.9 -99.99 -9.99
2020/02/28 07:30 CST    0.80 -99.99 -999 -999 -999 -99.9 -99.9 -999.9 -9.9 -9.999 -99.9 -99.99 -9.99
2020/02/28 07:36 CST    0.80 -99.99 -999 -999 -999 -99.9 -99.9 -999.9 -9.9 -9.999 -99.9 -99.99 -9.99
2020/02/28 07:42 CST    0.80 -99.99 -999 -999 -999 -99.9 -99.9 -999.9 -9.9 -9.999 -99.9 -99.99 -9.99
2020/02/28 07:48 CST    0.80 -99.99 -999 -999 -999 -99.9 -99.9 -999.9 -9.9 -9.999 -99.9 -99.99 -9.99
2020/02/28 07:54 CST    0.80 -99.99 -999 -999 -999 -99.9 -99.9 -999.9 -9.9 -9.999 -99.9 -99.99 -9.99
2020/02/28 08:00 CST    0.79 -99.99 -999 -999 -999 -99.9 -99.9 -999.9 -9.9 -9.999 -99.9 -99.99 -9.99
2020/02/28 08:06 CST    0.79 -99.99 -999 -999 -999 -99.9 -99.9 -999.9 -9.9 -9.999 -99.9 -99.99 -9.99
2020/02/28 08:12 CST    0.79 -99.99 -999 -999 -999 -99.9 -99.9 -999.9 -9.9 -9.999 -99.9 -99.99 -9.99
2020/02/28 08:18 CST    0.79 -99.99 -999 -999 -999 -99.9 -99.9 -999.9 -9.9 -9.999 -99.9 -99.99 -9.99
2020/02/28 08:24 CST    0.78 -99.99 -999 -999 -999 -99.9 -99.9 -999.9 -9.9 -9.999 -99.9 -99.99 -9.99
2020/02/28 08:30 CST    0.78 -99.99 -999 -999 -999 -99.9 -99.9 -999.9 -9.9 -9.999 -99.9 -99.99 -9.99
2020/02/28 08:36 CST    0.77 -99.99 -999 -999 -999 -99.9 -99.9 -999.9 -9.9 -9.999 -99.9 -99.99 -9.99
2020/02/28 08:42 CST    0.77 -99.99 -999 -999 -999 -99.9 -99.9 -999.9 -9.9 -9.999 -99.9 -99.99 -9.99
2020/02/28 08:48 CST    0.76 -99.99 -999 -999 -999 -99.9 -99.9 -999.9 -9.9 -9.999 -99.9 -99.99 -9.99
2020/02/28 08:54 CST    0.75 -99.99 -999 -999 -999 -99.9 -99.9 -999.9 -9.9 -9.999 -99.9 -99.99 -9.99
2020/02/28 09:00 CST    0.74 -99.99 -999 -999 -999 -99.9 -99.9 -999.9 -9.9 -9.999 -99.9 -99.99 -9.99
2020/02/28 09:06 CST    0.74 -99.99 -999 -999 -999 -99.9 -99.9 -999.9 -9.9 -9.999 -99.9 -99.99 -9.99
2020/02/28 09:12 CST    0.73 -99.99 -999 -999 -999 -99.9 -99.9 -999.9 -9.9 -9.999 -99.9 -99.99 -9.99